Med Antarctic — 9HA4607 — position and weather

sailwx.info

Track history (hours):
 
Tides and Currents Weather Stations Pressure Air Temp Water Temp Dewpoint Dewpoint Depression Visibility Wind Speed Wind Dir Waves Ship Positions

Med Antarctic

Last reported at 2017-Dec-15 05:02 UTC. Time now 2017-Dec-15 16:07 UTC.
Position N 40°42' E 029°25'.

Length 124 m; draft 7.9 m.

Type: Tanker. MMSI: 248315000.

Date/timePositionNaut miles runAvg speedWind from/ knotsBaromVisibWave heightAir tempDewpointWater temp
2017-Dec-15 05:02N 40°42' E 029°25'0 0.0
2017-Dec-15 05:00N 40°42' E 029°25'1 2.4
2017-Dec-15 04:29N 40°43' E 029°24'4 9.0
2017-Dec-15 04:00N 40°43' E 029°18'1912.1
2017-Dec-15 02:29N 40°44' E 028°54'25711.0
2017-Dec-14 03:02N 37°59' E 024°39'012.4
2017-Dec-14 03:01N 37°59' E 024°39'612.0
2017-Dec-14 02:30N 37°54' E 024°34'612.2
2017-Dec-14 02:01N 37°50' E 024°28'612.7
2017-Dec-14 01:31N 37°47' E 024°21'1012.2
2017-Dec-14 00:43N 37°40' E 024°13'312.4
2017-Dec-14 00:28N 37°37' E 024°11'511.8
2017-Dec-14 00:00N 37°33' E 024°07'612.2
2017-Dec-13 23:31N 37°28' E 024°02'612.1
2017-Dec-13 23:01N 37°23' E 023°58'1511.7
2017-Dec-13 21:46N 37°10' E 023°49'812.0
2017-Dec-13 21:07N 37°04' E 023°44'112.4
2017-Dec-13 21:01N 37°03' E 023°43'612.4
2017-Dec-13 20:31N 36°57' E 023°38'612.5
2017-Dec-13 20:00N 36°52' E 023°34'612.5
2017-Dec-13 19:30N 36°47' E 023°30'812.4
2017-Dec-13 18:49N 36°39' E 023°25'812.3
2017-Dec-13 18:10N 36°32' E 023°20'211.9
2017-Dec-13 18:00N 36°31' E 023°19'41112.4
2017-Dec-12 08:54N 36°19' E 014°49'613.2
2017-Dec-12 08:29N 36°21' E 014°42'612.9
2017-Dec-12 08:00N 36°23' E 014°35'613.1
2017-Dec-12 07:30N 36°25' E 014°27'612.9
2017-Dec-12 07:00N 36°27' E 014°20'713.0
2017-Dec-12 06:30N 36°29' E 014°12'612.5
2017-Dec-12 05:59N 36°32' E 014°05'  
2017-Dec-08 12:34N 36°24' W 008°54'112.9
2017-Dec-08 12:29N 36°24' W 008°55'712.9
2017-Dec-08 11:59N 36°26' W 009°03'812.7
2017-Dec-08 11:19N 36°28' W 009°13'412.5
2017-Dec-08 10:59N 36°29' W 009°18'812.6
2017-Dec-08 10:21N 36°35' W 009°26'612.8
2017-Dec-08 09:53N 36°39' W 009°31'612.5
2017-Dec-08 09:24N 36°44' W 009°36'712.4
2017-Dec-08 08:49N 36°50' W 009°39'612.9
2017-Dec-08 08:20N 36°57' W 009°41'2912.4
2017-Dec-08 05:58N 37°25' W 009°49'812.7
2017-Dec-08 05:23N 37°32' W 009°51'1113.2
2017-Dec-08 04:31N 37°43' W 009°55'013.2
2017-Dec-08 04:30N 37°44' W 009°55'713.1
2017-Dec-08 04:00N 37°50' W 009°57'713.3
2017-Dec-08 03:30N 37°56' W 009°58'713.8
2017-Dec-08 03:00N 38°03' W 010°01'713.2
2017-Dec-08 02:30N 38°10' W 010°03'612.6
2017-Dec-08 02:00N 38°16' W 010°04'713.3
2017-Dec-08 01:30N 38°22' W 010°06'713.3
2017-Dec-08 00:58N 38°29' W 010°08'612.8
2017-Dec-08 00:29N 38°35' W 010°10'612.2
2017-Dec-08 00:00N 38°41' W 010°12'612.6
2017-Dec-07 23:30N 38°47' W 010°12'612.9
2017-Dec-07 23:00N 38°54' W 010°12'612.7
2017-Dec-07 22:30N 38°60' W 010°12'713.0
2017-Dec-07 22:00N 39°06' W 010°12'713.0
2017-Dec-07 21:26N 39°14' W 010°12'  
Track history (hours):
 
Tides and Currents Weather Stations Pressure Air Temp Water Temp Dewpoint Dewpoint Depression Visibility Wind Speed Wind Dir Waves Ship Positions

Med Antarctic

Last reported at 2017-Dec-15 05:02 UTC. Time now 2017-Dec-15 16:07 UTC.
Position N 40°42' E 029°25'.

Length 124 m; draft 7.9 m.

Type: Tanker. MMSI: 248315000.

Date/timePositionNaut miles runAvg speedWind from/ knotsBaromVisibWave heightAir tempDewpointWater temp
2017-Dec-15 05:02N 40°42' E 029°25'0 0.0
2017-Dec-15 05:00N 40°42' E 029°25'1 2.4
2017-Dec-15 04:29N 40°43' E 029°24'4 9.0
2017-Dec-15 04:00N 40°43' E 029°18'1912.1
2017-Dec-15 02:29N 40°44' E 028°54'25711.0
2017-Dec-14 03:02N 37°59' E 024°39'012.4
2017-Dec-14 03:01N 37°59' E 024°39'612.0
2017-Dec-14 02:30N 37°54' E 024°34'612.2
2017-Dec-14 02:01N 37°50' E 024°28'612.7
2017-Dec-14 01:31N 37°47' E 024°21'1012.2
2017-Dec-14 00:43N 37°40' E 024°13'312.4
2017-Dec-14 00:28N 37°37' E 024°11'511.8
2017-Dec-14 00:00N 37°33' E 024°07'612.2
2017-Dec-13 23:31N 37°28' E 024°02'612.1
2017-Dec-13 23:01N 37°23' E 023°58'1511.7
2017-Dec-13 21:46N 37°10' E 023°49'812.0
2017-Dec-13 21:07N 37°04' E 023°44'112.4
2017-Dec-13 21:01N 37°03' E 023°43'612.4
2017-Dec-13 20:31N 36°57' E 023°38'612.5
2017-Dec-13 20:00N 36°52' E 023°34'612.5
2017-Dec-13 19:30N 36°47' E 023°30'812.4
2017-Dec-13 18:49N 36°39' E 023°25'812.3
2017-Dec-13 18:10N 36°32' E 023°20'211.9
2017-Dec-13 18:00N 36°31' E 023°19'41112.4
2017-Dec-12 08:54N 36°19' E 014°49'613.2
2017-Dec-12 08:29N 36°21' E 014°42'612.9
2017-Dec-12 08:00N 36°23' E 014°35'613.1
2017-Dec-12 07:30N 36°25' E 014°27'612.9
2017-Dec-12 07:00N 36°27' E 014°20'713.0
2017-Dec-12 06:30N 36°29' E 014°12'612.5
2017-Dec-12 05:59N 36°32' E 014°05'  
2017-Dec-08 12:34N 36°24' W 008°54'112.9
2017-Dec-08 12:29N 36°24' W 008°55'712.9
2017-Dec-08 11:59N 36°26' W 009°03'812.7
2017-Dec-08 11:19N 36°28' W 009°13'412.5
2017-Dec-08 10:59N 36°29' W 009°18'812.6
2017-Dec-08 10:21N 36°35' W 009°26'612.8
2017-Dec-08 09:53N 36°39' W 009°31'612.5
2017-Dec-08 09:24N 36°44' W 009°36'712.4
2017-Dec-08 08:49N 36°50' W 009°39'612.9
2017-Dec-08 08:20N 36°57' W 009°41'2912.4
2017-Dec-08 05:58N 37°25' W 009°49'812.7
2017-Dec-08 05:23N 37°32' W 009°51'1113.2
2017-Dec-08 04:31N 37°43' W 009°55'013.2
2017-Dec-08 04:30N 37°44' W 009°55'713.1
2017-Dec-08 04:00N 37°50' W 009°57'713.3
2017-Dec-08 03:30N 37°56' W 009°58'713.8
2017-Dec-08 03:00N 38°03' W 010°01'713.2
2017-Dec-08 02:30N 38°10' W 010°03'612.6
2017-Dec-08 02:00N 38°16' W 010°04'713.3
2017-Dec-08 01:30N 38°22' W 010°06'713.3
2017-Dec-08 00:58N 38°29' W 010°08'612.8
2017-Dec-08 00:29N 38°35' W 010°10'612.2
2017-Dec-08 00:00N 38°41' W 010°12'612.6
2017-Dec-07 23:30N 38°47' W 010°12'612.9
2017-Dec-07 23:00N 38°54' W 010°12'612.7
2017-Dec-07 22:30N 38°60' W 010°12'713.0
2017-Dec-07 22:00N 39°06' W 010°12'713.0
2017-Dec-07 21:26N 39°14' W 010°12'  

Dump ship's entire track history